sensor_id;sensor_type;location;lat;lon;timestamp;P1;durP1;ratioP1;P2;durP2;ratioP2
65764;SDS011;52915;53.718;19.946;2022-08-18T00:03:59;30.20;;;18.10;;
65764;SDS011;52915;53.718;19.946;2022-08-18T00:09:23;28.00;;;17.00;;
65764;SDS011;52915;53.718;19.946;2022-08-18T00:14:34;25.80;;;18.30;;
65764;SDS011;52915;53.718;19.946;2022-08-18T00:19:38;28.10;;;19.50;;
65764;SDS011;52915;53.718;19.946;2022-08-18T00:24:54;29.70;;;19.00;;
65764;SDS011;52915;53.718;19.946;2022-08-18T00:30:02;36.30;;;20.20;;
65764;SDS011;52915;53.718;19.946;2022-08-18T00:35:25;28.30;;;19.90;;
65764;SDS011;52915;53.718;19.946;2022-08-18T00:40:38;32.10;;;20.80;;
65764;SDS011;52915;53.718;19.946;2022-08-18T00:45:44;40.80;;;20.20;;
65764;SDS011;52915;53.718;19.946;2022-08-18T00:50:55;35.00;;;19.60;;
65764;SDS011;52915;53.718;19.946;2022-08-18T00:56:20;33.60;;;21.60;;
65764;SDS011;52915;53.718;19.946;2022-08-18T01:01:31;35.20;;;22.10;;
65764;SDS011;52915;53.718;19.946;2022-08-18T01:06:43;39.40;;;22.30;;
65764;SDS011;52915;53.718;19.946;2022-08-18T01:11:55;40.30;;;23.00;;
65764;SDS011;52915;53.718;19.946;2022-08-18T01:16:59;35.30;;;21.40;;
65764;SDS011;52915;53.718;19.946;2022-08-18T01:22:30;38.00;;;22.40;;
65764;SDS011;52915;53.718;19.946;2022-08-18T01:28:02;36.50;;;22.20;;
65764;SDS011;52915;53.718;19.946;2022-08-18T01:33:07;36.00;;;21.90;;
65764;SDS011;52915;53.718;19.946;2022-08-18T01:38:19;29.00;;;20.10;;
65764;SDS011;52915;53.718;19.946;2022-08-18T01:43:25;47.30;;;22.40;;
65764;SDS011;52915;53.718;19.946;2022-08-18T01:48:31;30.00;;;21.00;;
65764;SDS011;52915;53.718;19.946;2022-08-18T01:53:39;36.00;;;21.70;;
65764;SDS011;52915;53.718;19.946;2022-08-18T01:58:44;33.80;;;20.80;;
65764;SDS011;52915;53.718;19.946;2022-08-18T02:03:58;33.60;;;22.70;;
65764;SDS011;52915;53.718;19.946;2022-08-18T02:09:23;41.00;;;23.30;;
65764;SDS011;52915;53.718;19.946;2022-08-18T02:14:27;31.40;;;21.40;;
65764;SDS011;52915;53.718;19.946;2022-08-18T02:19:38;38.20;;;23.20;;
65764;SDS011;52915;53.718;19.946;2022-08-18T02:24:45;53.40;;;22.70;;
65764;SDS011;52915;53.718;19.946;2022-08-18T02:29:54;38.20;;;22.50;;
65764;SDS011;52915;53.718;19.946;2022-08-18T02:35:03;34.60;;;22.60;;
65764;SDS011;52915;53.718;19.946;2022-08-18T02:40:15;40.30;;;22.20;;
65764;SDS011;52915;53.718;19.946;2022-08-18T02:45:22;43.50;;;21.70;;
65764;SDS011;52915;53.718;19.946;2022-08-18T02:50:27;49.30;;;25.40;;
65764;SDS011;52915;53.718;19.946;2022-08-18T02:55:31;50.50;;;24.30;;
65764;SDS011;52915;53.718;19.946;2022-08-18T03:00:35;43.40;;;21.40;;
65764;SDS011;52915;53.718;19.946;2022-08-18T03:05:40;37.90;;;24.20;;
65764;SDS011;52915;53.718;19.946;2022-08-18T03:10:50;51.80;;;25.50;;
65764;SDS011;52915;53.718;19.946;2022-08-18T03:15:56;35.50;;;24.20;;
65764;SDS011;52915;53.718;19.946;2022-08-18T03:21:12;51.50;;;28.20;;
65764;SDS011;52915;53.718;19.946;2022-08-18T03:26:19;44.60;;;26.10;;
65764;SDS011;52915;53.718;19.946;2022-08-18T03:31:27;44.30;;;24.20;;
65764;SDS011;52915;53.718;19.946;2022-08-18T03:36:34;42.20;;;26.10;;
65764;SDS011;52915;53.718;19.946;2022-08-18T03:41:41;47.70;;;25.60;;
65764;SDS011;52915;53.718;19.946;2022-08-18T03:47:02;44.70;;;26.70;;
65764;SDS011;52915;53.718;19.946;2022-08-18T03:52:10;41.40;;;27.30;;
65764;SDS011;52915;53.718;19.946;2022-08-18T03:57:14;53.50;;;27.10;;
65764;SDS011;52915;53.718;19.946;2022-08-18T04:02:19;50.30;;;25.40;;
65764;SDS011;52915;53.718;19.946;2022-08-18T04:07:23;47.70;;;27.50;;
65764;SDS011;52915;53.718;19.946;2022-08-18T04:12:27;54.50;;;26.20;;
65764;SDS011;52915;53.718;19.946;2022-08-18T04:17:32;46.00;;;26.10;;
65764;SDS011;52915;53.718;19.946;2022-08-18T04:22:57;44.50;;;26.30;;
65764;SDS011;52915;53.718;19.946;2022-08-18T04:28:02;59.40;;;28.30;;
65764;SDS011;52915;53.718;19.946;2022-08-18T04:33:06;42.60;;;27.50;;
65764;SDS011;52915;53.718;19.946;2022-08-18T04:38:10;48.50;;;26.10;;
65764;SDS011;52915;53.718;19.946;2022-08-18T04:43:15;53.90;;;28.10;;
65764;SDS011;52915;53.718;19.946;2022-08-18T04:48:19;57.20;;;27.80;;
65764;SDS011;52915;53.718;19.946;2022-08-18T04:53:25;47.70;;;27.70;;
65764;SDS011;52915;53.718;19.946;2022-08-18T04:58:48;53.70;;;27.70;;
65764;SDS011;52915;53.718;19.946;2022-08-18T05:03:58;42.30;;;25.20;;
65764;SDS011;52915;53.718;19.946;2022-08-18T05:09:05;43.70;;;25.00;;
65764;SDS011;52915;53.718;19.946;2022-08-18T05:14:11;43.80;;;22.20;;
65764;SDS011;52915;53.718;19.946;2022-08-18T05:19:19;44.00;;;24.90;;
65764;SDS011;52915;53.718;19.946;2022-08-18T05:24:30;40.50;;;23.70;;
65764;SDS011;52915;53.718;19.946;2022-08-18T05:29:40;47.70;;;24.50;;
65764;SDS011;52915;53.718;19.946;2022-08-18T05:34:48;43.10;;;25.30;;
65764;SDS011;52915;53.718;19.946;2022-08-18T05:39:57;32.10;;;21.90;;
65764;SDS011;52915;53.718;19.946;2022-08-18T05:45:19;38.30;;;22.80;;
65764;SDS011;52915;53.718;19.946;2022-08-18T05:50:23;40.80;;;23.70;;
65764;SDS011;52915;53.718;19.946;2022-08-18T05:55:53;43.40;;;22.40;;
65764;SDS011;52915;53.718;19.946;2022-08-18T06:01:32;49.60;;;22.70;;
65764;SDS011;52915;53.718;19.946;2022-08-18T06:06:44;43.80;;;20.40;;
65764;SDS011;52915;53.718;19.946;2022-08-18T06:11:54;33.60;;;16.50;;
65764;SDS011;52915;53.718;19.946;2022-08-18T06:17:26;46.20;;;21.90;;
65764;SDS011;52915;53.718;19.946;2022-08-18T06:28:35;38.90;;;18.10;;
65764;SDS011;52915;53.718;19.946;2022-08-18T06:44:43;50.70;;;19.00;;
65764;SDS011;52915;53.718;19.946;2022-08-18T06:50:33;55.10;;;16.70;;
65764;SDS011;52915;53.718;19.946;2022-08-18T06:55:47;38.50;;;16.10;;
65764;SDS011;52915;53.718;19.946;2022-08-18T07:00:58;39.60;;;16.90;;
65764;SDS011;52915;53.718;19.946;2022-08-18T07:06:10;27.20;;;15.90;;
65764;SDS011;52915;53.718;19.946;2022-08-18T07:11:32;23.50;;;12.60;;
65764;SDS011;52915;53.718;19.946;2022-08-18T07:16:37;31.20;;;15.10;;
65764;SDS011;52915;53.718;19.946;2022-08-18T07:27:18;33.40;;;13.80;;
65764;SDS011;52915;53.718;19.946;2022-08-18T07:33:06;32.90;;;14.20;;
65764;SDS011;52915;53.718;19.946;2022-08-18T07:38:37;32.90;;;13.30;;
65764;SDS011;52915;53.718;19.946;2022-08-18T07:48:56;32.40;;;13.20;;
65764;SDS011;52915;53.718;19.946;2022-08-18T07:54:09;27.70;;;11.80;;
65764;SDS011;52915;53.718;19.946;2022-08-18T08:05:47;22.40;;;11.10;;
65764;SDS011;52915;53.718;19.946;2022-08-18T08:22:09;27.90;;;9.00;;
65764;SDS011;52915;53.718;19.946;2022-08-18T08:28:13;23.50;;;9.20;;
65764;SDS011;52915;53.718;19.946;2022-08-18T08:34:17;18.90;;;7.70;;
65764;SDS011;52915;53.718;19.946;2022-08-18T08:39:40;17.20;;;8.70;;
65764;SDS011;52915;53.718;19.946;2022-08-18T08:45:17;15.40;;;7.00;;
65764;SDS011;52915;53.718;19.946;2022-08-18T08:51:17;12.10;;;6.20;;
65764;SDS011;52915;53.718;19.946;2022-08-18T08:56:39;20.30;;;7.00;;
65764;SDS011;52915;53.718;19.946;2022-08-18T09:08:12;17.40;;;6.80;;
65764;SDS011;52915;53.718;19.946;2022-08-18T09:24:50;12.70;;;6.20;;
65764;SDS011;52915;53.718;19.946;2022-08-18T09:30:00;16.60;;;6.50;;
65764;SDS011;52915;53.718;19.946;2022-08-18T09:35:30;12.70;;;5.80;;
65764;SDS011;52915;53.718;19.946;2022-08-18T09:40:49;8.20;;;5.90;;
65764;SDS011;52915;53.718;19.946;2022-08-18T09:51:45;11.50;;;6.80;;
65764;SDS011;52915;53.718;19.946;2022-08-18T10:07:38;9.40;;;5.60;;
65764;SDS011;52915;53.718;19.946;2022-08-18T10:13:01;8.60;;;4.60;;
65764;SDS011;52915;53.718;19.946;2022-08-18T10:34:52;7.90;;;3.70;;
65764;SDS011;52915;53.718;19.946;2022-08-18T10:40:20;9.70;;;4.50;;
65764;SDS011;52915;53.718;19.946;2022-08-18T10:45:34;11.80;;;4.40;;
65764;SDS011;52915;53.718;19.946;2022-08-18T10:50:54;11.00;;;4.90;;
65764;SDS011;52915;53.718;19.946;2022-08-18T10:56:46;8.90;;;5.10;;
65764;SDS011;52915;53.718;19.946;2022-08-18T11:08:21;6.90;;;4.30;;
65764;SDS011;52915;53.718;19.946;2022-08-18T11:19:17;11.30;;;4.40;;
65764;SDS011;52915;53.718;19.946;2022-08-18T11:24:27;10.80;;;5.20;;
65764;SDS011;52915;53.718;19.946;2022-08-18T11:29:39;8.50;;;4.10;;
65764;SDS011;52915;53.718;19.946;2022-08-18T11:34:51;12.20;;;5.20;;
65764;SDS011;52915;53.718;19.946;2022-08-18T11:56:32;14.70;;;4.70;;
65764;SDS011;52915;53.718;19.946;2022-08-18T12:01:52;8.80;;;4.90;;
65764;SDS011;52915;53.718;19.946;2022-08-18T12:07:03;6.90;;;4.50;;
65764;SDS011;52915;53.718;19.946;2022-08-18T12:12:18;16.00;;;5.20;;
65764;SDS011;52915;53.718;19.946;2022-08-18T12:17:33;8.40;;;4.20;;
65764;SDS011;52915;53.718;19.946;2022-08-18T12:22:40;10.50;;;4.80;;
65764;SDS011;52915;53.718;19.946;2022-08-18T12:27:47;7.30;;;5.30;;
65764;SDS011;52915;53.718;19.946;2022-08-18T12:32:51;8.90;;;4.50;;
65764;SDS011;52915;53.718;19.946;2022-08-18T12:38:07;6.00;;;4.60;;
65764;SDS011;52915;53.718;19.946;2022-08-18T12:43:32;8.00;;;4.80;;
65764;SDS011;52915;53.718;19.946;2022-08-18T12:48:36;8.00;;;4.70;;
65764;SDS011;52915;53.718;19.946;2022-08-18T12:53:41;11.40;;;4.60;;
65764;SDS011;52915;53.718;19.946;2022-08-18T12:59:06;8.90;;;5.00;;
65764;SDS011;52915;53.718;19.946;2022-08-18T13:04:13;8.80;;;4.50;;
65764;SDS011;52915;53.718;19.946;2022-08-18T13:09:21;9.40;;;4.80;;
65764;SDS011;52915;53.718;19.946;2022-08-18T13:14:47;8.80;;;5.00;;
65764;SDS011;52915;53.718;19.946;2022-08-18T13:19:53;10.20;;;4.60;;
65764;SDS011;52915;53.718;19.946;2022-08-18T13:25:01;12.00;;;5.00;;
65764;SDS011;52915;53.718;19.946;2022-08-18T13:30:11;10.90;;;5.00;;
65764;SDS011;52915;53.718;19.946;2022-08-18T13:35:35;6.00;;;4.10;;
65764;SDS011;52915;53.718;19.946;2022-08-18T13:40:46;14.30;;;5.50;;
65764;SDS011;52915;53.718;19.946;2022-08-18T13:45:54;8.00;;;4.40;;
65764;SDS011;52915;53.718;19.946;2022-08-18T13:51:00;8.40;;;4.50;;
65764;SDS011;52915;53.718;19.946;2022-08-18T13:56:05;10.50;;;5.00;;
65764;SDS011;52915;53.718;19.946;2022-08-18T14:01:13;9.10;;;4.60;;
65764;SDS011;52915;53.718;19.946;2022-08-18T14:06:37;14.10;;;4.70;;
65764;SDS011;52915;53.718;19.946;2022-08-18T14:11:53;17.30;;;5.10;;
65764;SDS011;52915;53.718;19.946;2022-08-18T14:16:58;16.80;;;5.20;;
65764;SDS011;52915;53.718;19.946;2022-08-18T14:22:02;5.60;;;4.20;;
65764;SDS011;52915;53.718;19.946;2022-08-18T14:27:32;14.30;;;4.30;;
65764;SDS011;52915;53.718;19.946;2022-08-18T14:32:41;10.60;;;4.40;;
65764;SDS011;52915;53.718;19.946;2022-08-18T14:37:51;10.30;;;4.70;;
65764;SDS011;52915;53.718;19.946;2022-08-18T14:42:58;10.00;;;4.70;;
65764;SDS011;52915;53.718;19.946;2022-08-18T14:48:05;7.50;;;4.10;;
65764;SDS011;52915;53.718;19.946;2022-08-18T14:53:13;6.30;;;4.20;;
65764;SDS011;52915;53.718;19.946;2022-08-18T14:58:20;5.50;;;3.80;;
65764;SDS011;52915;53.718;19.946;2022-08-18T15:03:33;9.90;;;4.20;;
65764;SDS011;52915;53.718;19.946;2022-08-18T15:08:39;7.50;;;5.10;;
65764;SDS011;52915;53.718;19.946;2022-08-18T15:13:49;4.70;;;4.10;;
65764;SDS011;52915;53.718;19.946;2022-08-18T15:18:57;7.40;;;3.80;;
65764;SDS011;52915;53.718;19.946;2022-08-18T15:24:04;11.10;;;4.20;;
65764;SDS011;52915;53.718;19.946;2022-08-18T15:29:28;15.10;;;4.90;;
65764;SDS011;52915;53.718;19.946;2022-08-18T15:34:33;11.80;;;3.90;;
65764;SDS011;52915;53.718;19.946;2022-08-18T15:40:00;9.00;;;3.80;;
65764;SDS011;52915;53.718;19.946;2022-08-18T15:45:35;14.00;;;4.70;;
65764;SDS011;52915;53.718;19.946;2022-08-18T15:50:54;8.30;;;4.30;;
65764;SDS011;52915;53.718;19.946;2022-08-18T15:56:19;6.70;;;3.70;;
65764;SDS011;52915;53.718;19.946;2022-08-18T16:01:28;14.70;;;4.70;;
65764;SDS011;52915;53.718;19.946;2022-08-18T16:06:36;16.50;;;4.60;;
65764;SDS011;52915;53.718;19.946;2022-08-18T16:11:44;14.50;;;4.30;;
65764;SDS011;52915;53.718;19.946;2022-08-18T16:16:48;9.70;;;4.20;;
65764;SDS011;52915;53.718;19.946;2022-08-18T16:21:54;8.50;;;4.10;;
65764;SDS011;52915;53.718;19.946;2022-08-18T16:26:59;16.90;;;4.20;;
65764;SDS011;52915;53.718;19.946;2022-08-18T16:32:04;9.80;;;4.30;;
65764;SDS011;52915;53.718;19.946;2022-08-18T16:37:18;6.60;;;3.90;;
65764;SDS011;52915;53.718;19.946;2022-08-18T16:42:23;17.00;;;4.40;;
65764;SDS011;52915;53.718;19.946;2022-08-18T16:47:27;7.90;;;4.10;;
65764;SDS011;52915;53.718;19.946;2022-08-18T16:52:34;13.50;;;5.50;;
65764;SDS011;52915;53.718;19.946;2022-08-18T16:57:43;10.40;;;3.70;;
65764;SDS011;52915;53.718;19.946;2022-08-18T17:03:06;19.70;;;11.80;;
65764;SDS011;52915;53.718;19.946;2022-08-18T17:08:30;6.20;;;5.20;;
65764;SDS011;52915;53.718;19.946;2022-08-18T17:13:38;13.40;;;5.60;;
65764;SDS011;52915;53.718;19.946;2022-08-18T17:23:50;7.70;;;4.90;;
65764;SDS011;52915;53.718;19.946;2022-08-18T17:29:03;10.50;;;5.20;;
65764;SDS011;52915;53.718;19.946;2022-08-18T17:34:14;16.70;;;4.90;;
65764;SDS011;52915;53.718;19.946;2022-08-18T17:39:24;18.20;;;5.40;;
65764;SDS011;52915;53.718;19.946;2022-08-18T17:44:43;7.70;;;4.90;;
65764;SDS011;52915;53.718;19.946;2022-08-18T17:49:57;8.10;;;5.20;;
65764;SDS011;52915;53.718;19.946;2022-08-18T17:55:38;13.80;;;5.20;;
65764;SDS011;52915;53.718;19.946;2022-08-18T18:00:50;45.90;;;24.10;;
65764;SDS011;52915;53.718;19.946;2022-08-18T18:06:02;38.40;;;21.50;;
65764;SDS011;52915;53.718;19.946;2022-08-18T18:11:12;39.20;;;18.40;;
65764;SDS011;52915;53.718;19.946;2022-08-18T18:16:24;43.30;;;16.90;;
65764;SDS011;52915;53.718;19.946;2022-08-18T18:21:38;34.30;;;13.20;;
65764;SDS011;52915;53.718;19.946;2022-08-18T18:27:42;17.40;;;8.30;;
65764;SDS011;52915;53.718;19.946;2022-08-18T18:33:00;12.60;;;6.30;;
65764;SDS011;52915;53.718;19.946;2022-08-18T18:38:31;12.80;;;6.30;;
65764;SDS011;52915;53.718;19.946;2022-08-18T18:43:43;14.40;;;6.30;;
65764;SDS011;52915;53.718;19.946;2022-08-18T18:54:25;21.30;;;8.80;;
65764;SDS011;52915;53.718;19.946;2022-08-18T19:00:07;24.10;;;10.90;;
65764;SDS011;52915;53.718;19.946;2022-08-18T19:10:43;25.00;;;10.00;;
65764;SDS011;52915;53.718;19.946;2022-08-18T19:16:02;19.20;;;9.40;;
65764;SDS011;52915;53.718;19.946;2022-08-18T19:21:28;47.90;;;28.50;;
65764;SDS011;52915;53.718;19.946;2022-08-18T19:26:57;24.20;;;15.70;;
65764;SDS011;52915;53.718;19.946;2022-08-18T19:32:10;14.50;;;9.60;;
65764;SDS011;52915;53.718;19.946;2022-08-18T19:43:04;19.40;;;8.40;;
65764;SDS011;52915;53.718;19.946;2022-08-18T19:48:33;15.60;;;8.50;;
65764;SDS011;52915;53.718;19.946;2022-08-18T19:59:46;14.00;;;9.20;;
65764;SDS011;52915;53.718;19.946;2022-08-18T20:16:35;23.00;;;11.10;;
65764;SDS011;52915;53.718;19.946;2022-08-18T20:21:47;22.80;;;10.10;;
65764;SDS011;52915;53.718;19.946;2022-08-18T20:27:19;20.10;;;11.40;;
65764;SDS011;52915;53.718;19.946;2022-08-18T20:32:30;27.30;;;11.70;;
65764;SDS011;52915;53.718;19.946;2022-08-18T20:37:37;21.10;;;11.60;;
65764;SDS011;52915;53.718;19.946;2022-08-18T20:42:46;20.30;;;11.10;;
65764;SDS011;52915;53.718;19.946;2022-08-18T20:48:26;21.50;;;11.20;;
65764;SDS011;52915;53.718;19.946;2022-08-18T20:54:17;15.80;;;10.40;;
65764;SDS011;52915;53.718;19.946;2022-08-18T21:00:07;21.00;;;11.40;;
65764;SDS011;52915;53.718;19.946;2022-08-18T21:05:34;29.70;;;12.10;;
65764;SDS011;52915;53.718;19.946;2022-08-18T21:10:51;20.50;;;11.40;;
65764;SDS011;52915;53.718;19.946;2022-08-18T21:16:03;19.10;;;11.60;;
65764;SDS011;52915;53.718;19.946;2022-08-18T21:21:19;26.60;;;11.50;;
65764;SDS011;52915;53.718;19.946;2022-08-18T21:26:30;24.80;;;10.90;;
65764;SDS011;52915;53.718;19.946;2022-08-18T21:31:38;13.90;;;10.30;;
65764;SDS011;52915;53.718;19.946;2022-08-18T21:36:53;19.90;;;10.70;;
65764;SDS011;52915;53.718;19.946;2022-08-18T21:41:59;15.90;;;10.40;;
65764;SDS011;52915;53.718;19.946;2022-08-18T21:47:17;23.10;;;11.90;;
65764;SDS011;52915;53.718;19.946;2022-08-18T21:52:27;26.70;;;12.30;;
65764;SDS011;52915;53.718;19.946;2022-08-18T21:58:01;29.30;;;14.30;;
65764;SDS011;52915;53.718;19.946;2022-08-18T22:08:30;25.80;;;12.80;;
65764;SDS011;52915;53.718;19.946;2022-08-18T22:13:47;29.40;;;13.20;;
65764;SDS011;52915;53.718;19.946;2022-08-18T22:24:43;21.70;;;13.70;;
65764;SDS011;52915;53.718;19.946;2022-08-18T22:29:58;28.40;;;15.20;;
65764;SDS011;52915;53.718;19.946;2022-08-18T22:35:07;19.60;;;14.10;;
65764;SDS011;52915;53.718;19.946;2022-08-18T22:40:13;19.20;;;13.60;;
65764;SDS011;52915;53.718;19.946;2022-08-18T22:45:23;27.40;;;12.80;;
65764;SDS011;52915;53.718;19.946;2022-08-18T22:50:28;29.50;;;16.30;;
65764;SDS011;52915;53.718;19.946;2022-08-18T22:55:32;24.60;;;14.20;;
65764;SDS011;52915;53.718;19.946;2022-08-18T23:00:37;31.60;;;15.40;;
65764;SDS011;52915;53.718;19.946;2022-08-18T23:05:44;27.10;;;14.00;;
65764;SDS011;52915;53.718;19.946;2022-08-18T23:10:48;28.20;;;15.60;;
65764;SDS011;52915;53.718;19.946;2022-08-18T23:15:53;26.50;;;17.70;;
65764;SDS011;52915;53.718;19.946;2022-08-18T23:21:17;28.00;;;18.30;;
65764;SDS011;52915;53.718;19.946;2022-08-18T23:26:39;26.80;;;16.80;;
65764;SDS011;52915;53.718;19.946;2022-08-18T23:31:46;26.70;;;16.60;;
65764;SDS011;52915;53.718;19.946;2022-08-18T23:36:56;27.50;;;16.00;;
65764;SDS011;52915;53.718;19.946;2022-08-18T23:42:04;30.50;;;17.30;;
65764;SDS011;52915;53.718;19.946;2022-08-18T23:47:09;29.30;;;17.30;;
65764;SDS011;52915;53.718;19.946;2022-08-18T23:52:14;32.60;;;16.20;;
65764;SDS011;52915;53.718;19.946;2022-08-18T23:57:18;29.90;;;18.30;;
